モスクワ/シェレメーチエヴォ の空港の天気 - METARとTAF

シェレメーチエヴォ国際空港(モスクワ) ( UUEE / SVO ) - ロシア モスクワ
飛行場実況気象(Metar)
観測時間10/19 21:00 MSK (10/19 18:00 UTC)
風向・風速北西 6m/s
視程10km以上
天気現象
全天の4割程度の雲 雲底高度 490m
気温11℃
湿度76%
気圧1016hPa
METARUUEE 191800Z 32006MPS 9999 SCT016 11/07 Q1016 R24C/CLRD62 R24L/CLRD62 NOSIG
過去の天気等 Google飛行場航空写真 Wunderground天気予報

過去48時間のMETAR

飛行場予報(TAF)
発表時間: 10/19 19:55 MSK (10/19 16:55 UTC)
予報対象時間: 19日21時 MSK ~ 20日21時 MSK
風向・風速西北西 4m/s
視程9000m
全天の4割程度の雲 雲底高度 910m
TAF UUEE 191655Z 1918/2018 30004MPS 9000 SCT030 TX11/1918Z TN02/2003Z